createdAt,value
2018-08-19T00:02:17.712Z,7.90
2018-08-19T00:05:04.953Z,6.23
2018-08-19T00:07:35.130Z,8.57
2018-08-19T00:10:06.784Z,9.60
2018-08-19T00:12:43.835Z,8.07
2018-08-19T00:15:13.968Z,7.07
2018-08-19T00:17:43.578Z,6.43
2018-08-19T00:20:14.361Z,5.67
2018-08-19T00:22:44.192Z,7.20
2018-08-19T00:25:29.751Z,6.87
2018-08-19T00:27:59.133Z,5.80
2018-08-19T00:30:29.560Z,6.63
2018-08-19T00:33:00.394Z,7.93
2018-08-19T00:35:29.503Z,8.00
2018-08-19T00:37:58.816Z,9.40
2018-08-19T00:40:27.541Z,5.47
2018-08-19T00:42:56.740Z,6.20
2018-08-19T00:45:25.916Z,6.23
2018-08-19T00:47:54.605Z,4.87
2018-08-19T00:50:24.430Z,5.03
2018-08-19T00:52:53.767Z,4.63
2018-08-19T00:55:23.016Z,7.50
2018-08-19T00:57:57.552Z,5.03
2018-08-19T01:00:28.869Z,4.40
2018-08-19T01:02:57.541Z,5.83
2018-08-19T01:05:26.020Z,6.77
2018-08-19T01:07:54.843Z,8.60
2018-08-19T01:10:27.002Z,8.80
2018-08-19T01:12:55.602Z,5.17
2018-08-19T01:15:23.893Z,5.87
2018-08-19T01:17:52.823Z,6.57
2018-08-19T01:20:22.605Z,5.50
2018-08-19T01:22:52.559Z,7.20
2018-08-19T01:25:21.406Z,7.13
2018-08-19T01:27:51.409Z,7.97
2018-08-19T01:30:24.363Z,7.20
2018-08-19T01:32:55.303Z,6.87
2018-08-19T01:35:30.762Z,6.40
2018-08-19T01:37:59.577Z,6.20
2018-08-19T01:40:29.891Z,7.50
2018-08-19T01:42:58.960Z,6.17
2018-08-19T01:45:27.599Z,7.00
2018-08-19T01:47:56.376Z,6.97
2018-08-19T01:50:27.797Z,7.00
2018-08-19T01:52:56.617Z,6.87
2018-08-19T01:55:25.372Z,7.93
2018-08-19T01:57:56.750Z,8.40
2018-08-19T02:00:26.272Z,9.83
2018-08-19T02:03:02.878Z,6.20
2018-08-19T02:05:31.774Z,6.77
2018-08-19T02:08:03.708Z,6.70
2018-08-19T02:10:34.644Z,9.07
2018-08-19T02:13:03.567Z,8.10
2018-08-19T02:15:33.303Z,5.90
2018-08-19T02:18:04.054Z,6.73
2018-08-19T02:20:38.525Z,6.97
2018-08-19T02:23:08.999Z,6.70
2018-08-19T02:25:43.852Z,9.07
2018-08-19T02:28:14.992Z,8.53
2018-08-19T02:31:02.121Z,7.77
2018-08-19T02:33:34.352Z,7.53
2018-08-19T02:36:06.354Z,8.87
2018-08-19T02:38:36.272Z,8.93
2018-08-19T02:41:06.528Z,8.13
2018-08-19T02:43:44.262Z,8.13
2018-08-19T02:46:12.939Z,11.50
2018-08-19T02:48:49.329Z,8.10
2018-08-19T02:51:18.946Z,8.80
2018-08-19T02:53:49.578Z,8.13
2018-08-19T02:56:19.098Z,8.50
2018-08-19T02:58:48.405Z,8.00
2018-08-19T03:01:18.192Z,8.17
2018-08-19T03:03:46.877Z,7.37
2018-08-19T03:06:16.043Z,10.07
2018-08-19T03:08:50.467Z,7.90
2018-08-19T03:11:21.128Z,11.33
2018-08-19T03:13:49.763Z,10.17
2018-08-19T03:16:18.981Z,9.30
2018-08-19T03:18:52.514Z,11.90
2018-08-19T03:21:22.167Z,11.00
2018-08-19T03:23:52.791Z,7.70
2018-08-19T03:26:21.469Z,9.23
2018-08-19T03:28:50.247Z,11.47
2018-08-19T03:31:18.943Z,11.70
2018-08-19T03:33:48.487Z,8.50
2018-08-19T03:36:17.769Z,11.90
2018-08-19T03:38:46.312Z,8.97
2018-08-19T03:41:15.133Z,9.80
2018-08-19T03:43:51.260Z,12.60
2018-08-19T03:46:20.231Z,9.40
2018-08-19T03:48:50.451Z,10.23
2018-08-19T03:51:19.707Z,11.27
2018-08-19T03:53:48.332Z,13.70
2018-08-19T03:56:22.577Z,14.70
2018-08-19T03:58:54.388Z,13.50
2018-08-19T04:01:41.153Z,17.20
2018-08-19T04:04:10.945Z,12.47
2018-08-19T04:06:40.713Z,14.23
2018-08-19T04:09:09.435Z,15.40
2018-08-19T04:11:38.988Z,15.50
2018-08-19T04:14:28.682Z,14.70
2018-08-19T04:16:59.157Z,14.83
2018-08-19T04:19:28.470Z,14.53
2018-08-19T04:22:01.195Z,15.30
2018-08-19T04:24:31.012Z,15.83
2018-08-19T04:27:09.288Z,14.30
2018-08-19T04:29:39.194Z,15.07
2018-08-19T04:32:16.830Z,18.97
2018-08-19T04:34:46.163Z,18.27
2018-08-19T04:37:15.966Z,14.87
2018-08-19T04:39:45.676Z,15.20
2018-08-19T04:42:14.527Z,18.07
2018-08-19T04:44:44.068Z,17.03
2018-08-19T04:47:31.648Z,14.73
2018-08-19T04:50:00.663Z,17.77
2018-08-19T04:52:31.628Z,15.97
2018-08-19T04:55:01.484Z,12.33
2018-08-19T04:57:30.264Z,17.47
2018-08-19T04:59:59.026Z,15.97
2018-08-19T05:02:28.561Z,14.83
2018-08-19T05:04:57.776Z,16.00
2018-08-19T05:07:26.612Z,14.13
2018-08-19T05:09:55.411Z,13.97
2018-08-19T05:12:24.069Z,17.17
2018-08-19T05:14:52.868Z,15.70
2018-08-19T05:17:21.673Z,12.83
2018-08-19T05:19:52.791Z,12.67
2018-08-19T05:22:21.667Z,16.10
2018-08-19T05:24:50.627Z,15.60
2018-08-19T05:27:19.340Z,16.43
2018-08-19T05:29:48.201Z,16.33
2018-08-19T05:32:16.907Z,13.83
2018-08-19T05:34:45.558Z,15.17
2018-08-19T05:37:14.318Z,13.90
2018-08-19T05:39:48.706Z,18.57
2018-08-19T05:42:18.097Z,19.57
2018-08-19T05:44:46.920Z,14.83
2018-08-19T05:47:18.728Z,17.10
2018-08-19T05:49:48.563Z,19.37
2018-08-19T05:52:20.413Z,16.73
2018-08-19T05:54:58.529Z,14.13
2018-08-19T05:57:30.538Z,14.97
2018-08-19T06:00:00.448Z,15.10
2018-08-19T06:02:36.971Z,14.27
2018-08-19T06:05:05.689Z,17.97
2018-08-19T06:07:35.085Z,18.50
2018-08-19T06:10:04.342Z,13.30
2018-08-19T06:12:33.828Z,18.50
2018-08-19T06:15:02.680Z,15.60
2018-08-19T06:17:32.070Z,12.10
2018-08-19T06:20:01.400Z,16.33
2018-08-19T06:22:36.315Z,16.87
2018-08-19T06:25:08.011Z,16.93
2018-08-19T06:27:49.180Z,15.17
2018-08-19T06:30:22.546Z,19.67
2018-08-19T06:35:32.958Z,18.83
2018-08-19T06:38:02.508Z,16.63
2018-08-19T06:40:32.580Z,16.40
2018-08-19T06:43:05.536Z,14.50
2018-08-19T06:45:35.686Z,16.27
2018-08-19T06:48:04.828Z,14.07
2018-08-19T06:50:36.040Z,12.87
2018-08-19T06:53:04.946Z,18.33
2018-08-19T06:55:33.976Z,15.37
2018-08-19T06:58:02.844Z,15.20
2018-08-19T07:00:33.888Z,14.73
2018-08-19T07:03:07.043Z,15.60
2018-08-19T07:05:37.109Z,16.43
2018-08-19T07:08:09.438Z,13.17
2018-08-19T07:10:40.928Z,13.57
2018-08-19T07:13:13.179Z,13.30
2018-08-19T07:15:43.000Z,14.23
2018-08-19T07:18:13.953Z,17.47
2018-08-19T07:20:44.083Z,13.33
2018-08-19T07:23:13.174Z,15.17
2018-08-19T07:25:43.032Z,15.27
2018-08-19T07:28:12.901Z,15.33
2018-08-19T07:30:41.995Z,16.00
2018-08-19T07:33:12.654Z,14.67
2018-08-19T07:35:41.899Z,14.20
2018-08-19T07:38:10.891Z,13.57
2018-08-19T07:40:39.475Z,15.73
2018-08-19T07:43:08.470Z,14.10
2018-08-19T07:45:38.845Z,15.07
2018-08-19T07:48:08.454Z,13.97
2018-08-19T07:50:40.260Z,13.43
2018-08-19T07:53:11.625Z,17.90
2018-08-19T07:55:42.317Z,14.17
2018-08-19T07:58:11.615Z,15.40
2018-08-19T08:00:41.633Z,13.33
2018-08-19T08:03:11.161Z,14.07
2018-08-19T08:05:46.785Z,14.40
2018-08-19T08:08:18.071Z,15.27
2018-08-19T08:10:47.589Z,14.27
2018-08-19T08:13:17.807Z,11.87
2018-08-19T08:15:55.175Z,12.23
2018-08-19T08:18:24.677Z,11.90
2018-08-19T08:21:01.566Z,14.97
2018-08-19T08:23:30.633Z,11.27
2018-08-19T08:25:59.534Z,12.70
2018-08-19T08:28:29.117Z,13.37
2018-08-19T08:30:59.618Z,12.03
2018-08-19T08:33:28.939Z,12.27
2018-08-19T08:35:58.233Z,14.10
2018-08-19T08:38:27.032Z,13.67
2018-08-19T08:40:56.595Z,14.10
2018-08-19T08:43:25.430Z,14.00
2018-08-19T08:45:58.617Z,12.20
2018-08-19T08:48:29.663Z,14.90
2018-08-19T08:50:58.939Z,11.30
2018-08-19T08:53:39.721Z,12.57
2018-08-19T08:56:10.832Z,10.27
2018-08-19T08:58:40.949Z,12.10
2018-08-19T09:01:11.521Z,11.47
2018-08-19T09:03:41.368Z,10.90
2018-08-19T09:06:18.587Z,11.07
2018-08-19T09:08:48.441Z,10.23
2018-08-19T09:11:18.775Z,11.70
2018-08-19T09:13:48.992Z,11.80
2018-08-19T09:16:18.756Z,10.47
2018-08-19T09:18:49.778Z,10.10
2018-08-19T09:21:19.272Z,9.13
2018-08-19T09:23:49.674Z,12.30
2018-08-19T09:26:18.441Z,11.77
2018-08-19T09:28:49.385Z,9.70
2018-08-19T09:31:20.462Z,9.63
2018-08-19T09:33:50.061Z,11.90
2018-08-19T09:36:22.136Z,10.03
2018-08-19T09:38:52.861Z,10.33
2018-08-19T09:41:23.508Z,12.87
2018-08-19T09:43:53.607Z,11.47
2018-08-19T09:46:25.914Z,11.53
2018-08-19T09:48:55.096Z,11.27
2018-08-19T09:51:26.302Z,13.60
2018-08-19T09:53:57.475Z,11.00
2018-08-19T09:56:32.453Z,9.93
2018-08-19T09:59:02.899Z,10.40
2018-08-19T10:01:38.603Z,8.80
2018-08-19T10:04:25.232Z,8.60
2018-08-19T10:07:06.704Z,11.70
2018-08-19T10:09:36.656Z,10.30
2018-08-19T10:12:08.953Z,14.20
2018-08-19T10:14:37.540Z,11.47
2018-08-19T10:17:06.162Z,10.03
2018-08-19T10:19:34.888Z,12.03
2018-08-19T10:22:03.814Z,8.73
2018-08-19T10:24:33.338Z,12.20
2018-08-19T10:27:06.445Z,8.00
2018-08-19T10:29:35.477Z,9.20
2018-08-19T10:32:04.685Z,11.40
2018-08-19T10:34:35.100Z,11.20
2018-08-19T10:37:05.284Z,8.13
2018-08-19T10:39:33.813Z,6.63
2018-08-19T10:42:19.429Z,10.40
2018-08-19T10:44:51.413Z,9.20
2018-08-19T10:47:20.494Z,12.77
2018-08-19T10:49:59.314Z,6.43
2018-08-19T10:52:29.238Z,6.30
2018-08-19T10:54:59.232Z,5.67
2018-08-19T10:57:27.907Z,9.13
2018-08-19T10:59:57.724Z,6.37
2018-08-19T11:02:26.341Z,7.67
2018-08-19T11:04:58.479Z,6.80
2018-08-19T11:07:27.346Z,9.07
2018-08-19T11:10:26.316Z,7.13
2018-08-19T11:12:58.324Z,8.73
2018-08-19T11:16:00.143Z,8.30
2018-08-19T11:18:35.095Z,9.50
2018-08-19T11:21:10.036Z,10.80
2018-08-19T11:23:42.443Z,8.83
2018-08-19T11:26:11.495Z,9.50
2018-08-19T11:28:44.892Z,10.20
2018-08-19T11:31:22.000Z,10.47
2018-08-19T11:33:51.351Z,11.53
2018-08-19T11:36:21.768Z,12.63
2018-08-19T11:38:55.085Z,13.17
2018-08-19T11:41:23.826Z,12.87
2018-08-19T11:43:52.520Z,12.20
2018-08-19T11:46:21.430Z,13.33
2018-08-19T11:48:55.394Z,11.47
2018-08-19T11:51:41.659Z,11.63
2018-08-19T11:54:13.189Z,11.43
2018-08-19T11:57:18.957Z,10.63
2018-08-19T11:59:48.444Z,10.10
2018-08-19T12:02:19.071Z,11.53
2018-08-19T12:04:47.936Z,9.57
2018-08-19T12:07:17.096Z,9.07
2018-08-19T12:09:53.314Z,7.70
2018-08-19T12:12:44.500Z,7.07
2018-08-19T12:15:12.992Z,7.33
2018-08-19T12:17:45.730Z,8.10
2018-08-19T12:20:22.709Z,6.70
2018-08-19T12:22:52.873Z,7.10
2018-08-19T12:25:21.513Z,7.97
2018-08-19T12:27:50.590Z,7.80
2018-08-19T12:30:19.807Z,8.10
2018-08-19T12:32:49.238Z,7.97
2018-08-19T12:35:19.454Z,8.33
2018-08-19T12:37:48.017Z,10.30
2018-08-19T12:40:17.667Z,10.10
2018-08-19T12:42:52.387Z,9.30
2018-08-19T12:45:22.384Z,9.93
2018-08-19T12:47:51.569Z,9.73
2018-08-19T12:50:20.360Z,9.47
2018-08-19T12:52:51.093Z,9.83
2018-08-19T12:55:21.777Z,10.33
2018-08-19T12:57:56.805Z,9.30
2018-08-19T13:00:28.077Z,9.27
2018-08-19T13:02:57.783Z,11.63
2018-08-19T13:05:28.093Z,11.90
2018-08-19T13:07:57.340Z,10.10
2018-08-19T13:10:36.508Z,8.90
2018-08-19T13:13:06.413Z,8.87
2018-08-19T13:15:35.078Z,8.17
2018-08-19T13:18:04.715Z,8.27
2018-08-19T13:23:13.697Z,9.50
2018-08-19T13:25:42.490Z,9.40
2018-08-19T13:28:11.808Z,15.13
2018-08-19T13:30:40.825Z,11.23
2018-08-19T13:33:10.389Z,9.03
2018-08-19T13:35:40.021Z,7.13
2018-08-19T13:38:08.998Z,8.20
2018-08-19T13:40:37.985Z,6.27
2018-08-19T13:43:07.396Z,5.70
2018-08-19T13:45:36.532Z,6.10
2018-08-19T13:48:06.644Z,6.63
2018-08-19T13:50:36.052Z,5.63
2018-08-19T13:53:06.735Z,8.83
2018-08-19T13:55:36.536Z,7.37
2018-08-19T13:58:06.704Z,5.60
2018-08-19T14:00:36.277Z,6.27
2018-08-19T14:03:06.339Z,7.63
2018-08-19T14:05:35.484Z,8.70
2018-08-19T14:08:04.725Z,8.50
2018-08-19T14:10:33.973Z,8.77
2018-08-19T14:13:05.443Z,9.30
2018-08-19T14:15:34.369Z,9.90
2018-08-19T14:18:05.072Z,9.37
2018-08-19T14:20:35.263Z,10.13
2018-08-19T14:23:06.433Z,10.03
2018-08-19T14:25:35.933Z,9.67
2018-08-19T14:28:07.508Z,13.30
2018-08-19T14:30:37.773Z,10.90
2018-08-19T14:33:07.683Z,36.00
2018-08-19T14:35:39.189Z,11.03
2018-08-19T14:38:10.028Z,10.13
2018-08-19T14:40:41.651Z,9.70
2018-08-19T14:43:12.275Z,10.80
2018-08-19T14:45:41.510Z,10.60
2018-08-19T14:48:12.215Z,10.17
2018-08-19T14:50:44.641Z,9.10
2018-08-19T14:53:17.678Z,10.90
2018-08-19T14:55:47.327Z,10.40
2018-08-19T14:58:22.039Z,9.30
2018-08-19T15:00:52.967Z,9.60
2018-08-19T15:03:24.905Z,9.60
2018-08-19T15:06:04.367Z,9.70
2018-08-19T15:08:43.258Z,9.60
2018-08-19T15:11:14.109Z,9.90
2018-08-19T15:13:45.819Z,10.47
2018-08-19T15:16:16.016Z,11.53
2018-08-19T15:18:48.189Z,9.73
2018-08-19T15:21:18.404Z,8.73
2018-08-19T15:23:47.589Z,9.47
2018-08-19T15:26:16.740Z,9.70
2018-08-19T15:28:48.971Z,10.17
2018-08-19T15:31:24.340Z,10.17
2018-08-19T15:33:54.183Z,10.03
2018-08-19T15:36:24.407Z,13.47
2018-08-19T15:38:53.553Z,13.43
2018-08-19T15:41:22.883Z,11.67
2018-08-19T15:43:55.915Z,10.87
2018-08-19T15:46:24.755Z,9.47
2018-08-19T15:48:55.266Z,12.17
2018-08-19T15:51:24.165Z,7.30
2018-08-19T15:53:52.713Z,11.10
2018-08-19T15:56:21.846Z,9.13
2018-08-19T15:58:51.197Z,8.87
2018-08-19T16:01:29.096Z,6.47
2018-08-19T16:04:06.405Z,7.30
2018-08-19T16:06:35.632Z,7.20
2018-08-19T16:09:09.312Z,7.80
2018-08-19T16:11:39.868Z,9.13
2018-08-19T16:14:17.152Z,9.87
2018-08-19T16:16:46.373Z,7.70
2018-08-19T16:19:15.320Z,11.27
2018-08-19T16:21:49.360Z,8.00
2018-08-19T16:24:17.952Z,7.40
2018-08-19T16:26:46.870Z,8.43
2018-08-19T16:29:15.366Z,6.90
2018-08-19T16:31:44.241Z,7.90
2018-08-19T16:34:12.873Z,7.93
2018-08-19T16:36:42.743Z,8.33
2018-08-19T16:39:13.595Z,7.27
2018-08-19T16:41:42.777Z,6.70
2018-08-19T16:44:11.679Z,7.23
2018-08-19T16:46:40.713Z,7.83
2018-08-19T16:49:09.756Z,8.13
2018-08-19T16:51:38.752Z,7.90
2018-08-19T16:54:07.759Z,9.43
2018-08-19T16:56:36.912Z,10.30
2018-08-19T16:59:05.638Z,8.73
2018-08-19T17:01:34.190Z,9.50
2018-08-19T17:04:02.567Z,11.70
2018-08-19T17:06:31.667Z,12.60
2018-08-19T17:09:00.332Z,13.07
2018-08-19T17:11:28.965Z,16.60
2018-08-19T17:13:58.245Z,16.20
2018-08-19T17:16:27.396Z,15.03
2018-08-19T17:18:56.183Z,14.03
2018-08-19T17:21:25.522Z,14.87
2018-08-19T17:23:55.126Z,17.70
2018-08-19T17:26:24.512Z,15.70
2018-08-19T17:28:53.305Z,18.23
2018-08-19T17:31:21.948Z,19.33
2018-08-19T17:33:50.945Z,15.53
2018-08-19T17:36:26.895Z,17.70
2018-08-19T17:38:56.050Z,15.47
2018-08-19T17:41:25.432Z,16.63
2018-08-19T17:43:54.393Z,13.90
2018-08-19T17:46:23.058Z,16.20
2018-08-19T17:48:53.596Z,18.53
2018-08-19T17:51:35.341Z,15.23
2018-08-19T17:54:12.494Z,14.63
2018-08-19T17:56:41.145Z,13.90
2018-08-19T17:59:09.976Z,19.13
2018-08-19T18:01:40.164Z,15.07
2018-08-19T18:04:10.260Z,13.07
2018-08-19T18:06:40.329Z,15.63
2018-08-19T18:11:42.317Z,12.27
2018-08-19T18:14:11.748Z,17.67
2018-08-19T18:16:40.420Z,14.40
2018-08-19T18:19:10.148Z,14.30
2018-08-19T18:21:40.055Z,14.70
2018-08-19T18:24:09.331Z,15.07
2018-08-19T18:26:38.464Z,12.90
2018-08-19T18:29:07.881Z,15.43
2018-08-19T18:31:37.124Z,14.10
2018-08-19T18:34:09.129Z,18.60
2018-08-19T18:36:38.959Z,16.20
2018-08-19T18:39:10.450Z,18.63
2018-08-19T18:41:45.336Z,15.13
2018-08-19T18:44:15.721Z,18.97
2018-08-19T18:46:44.261Z,13.33
2018-08-19T18:49:15.459Z,13.87
2018-08-19T18:51:50.465Z,16.03
2018-08-19T18:54:30.276Z,14.70
2018-08-19T18:57:09.176Z,12.80
2018-08-19T18:59:43.916Z,19.00
2018-08-19T19:02:13.791Z,17.30
2018-08-19T19:04:43.054Z,13.60
2018-08-19T19:07:14.761Z,14.57
2018-08-19T19:09:49.336Z,12.93
2018-08-19T19:12:22.246Z,13.87
2018-08-19T19:14:51.453Z,15.67
2018-08-19T19:17:22.369Z,18.30
2018-08-19T19:19:52.785Z,18.83
2018-08-19T19:22:23.676Z,15.33
2018-08-19T19:24:52.986Z,18.17
2018-08-19T19:27:23.353Z,17.90
2018-08-19T19:29:58.169Z,15.90
2018-08-19T19:32:27.593Z,16.60
2018-08-19T19:35:11.867Z,16.10
2018-08-19T19:37:46.556Z,15.70
2018-08-19T19:40:17.737Z,17.27
2018-08-19T19:42:47.286Z,16.00
2018-08-19T19:45:17.150Z,15.87
2018-08-19T19:47:45.992Z,18.63
2018-08-19T19:52:54.315Z,15.30
2018-08-19T19:55:24.317Z,15.30
2018-08-19T19:57:54.056Z,15.47
2018-08-19T20:00:23.882Z,15.70
2018-08-19T20:02:54.546Z,14.40
2018-08-19T20:05:25.761Z,15.73
2018-08-19T20:07:55.671Z,16.37
2018-08-19T20:10:26.961Z,16.67
2018-08-19T20:12:56.896Z,16.33
2018-08-19T20:15:27.252Z,19.67
2018-08-19T20:17:58.581Z,16.47
2018-08-19T20:20:27.418Z,18.60
2018-08-19T20:22:57.467Z,15.60
2018-08-19T20:25:27.399Z,16.73
2018-08-19T20:28:01.549Z,16.27
2018-08-19T20:30:31.344Z,14.10
2018-08-19T20:33:00.884Z,15.30
2018-08-19T20:35:30.732Z,14.00
2018-08-19T20:38:01.382Z,14.30
2018-08-19T20:40:32.310Z,16.43
2018-08-19T20:43:03.648Z,15.00
2018-08-19T20:45:33.580Z,14.00
2018-08-19T20:48:04.451Z,13.13
2018-08-19T20:50:33.982Z,11.30
2018-08-19T20:53:04.435Z,13.53
2018-08-19T20:55:33.878Z,12.73
2018-08-19T20:58:04.199Z,9.10
2018-08-19T21:00:33.873Z,10.40
2018-08-19T21:03:04.774Z,9.57
2018-08-19T21:05:34.847Z,8.50
2018-08-19T21:08:17.042Z,9.20
2018-08-19T21:10:48.844Z,11.00
2018-08-19T21:13:19.539Z,11.73
2018-08-19T21:15:52.533Z,9.80
2018-08-19T21:18:21.194Z,10.37
2018-08-19T21:20:50.637Z,11.77
2018-08-19T21:23:19.407Z,9.00
2018-08-19T21:25:54.147Z,12.27
2018-08-19T21:28:22.761Z,12.80
2018-08-19T21:30:52.364Z,8.47
2018-08-19T21:33:23.302Z,8.00
2018-08-19T21:35:55.184Z,10.40
2018-08-19T21:38:23.823Z,7.67
2018-08-19T21:40:55.461Z,7.70
2018-08-19T21:43:30.191Z,7.80
2018-08-19T21:46:01.427Z,8.20
2018-08-19T21:48:31.105Z,8.77
2018-08-19T21:50:59.848Z,7.60
2018-08-19T21:53:30.265Z,7.03
2018-08-19T21:55:59.485Z,7.33
2018-08-19T21:58:28.384Z,9.77
2018-08-19T22:00:59.079Z,7.47
2018-08-19T22:03:33.611Z,6.37
2018-08-19T22:06:05.861Z,6.70
2018-08-19T22:08:34.801Z,7.97
2018-08-19T22:11:03.964Z,6.30
2018-08-19T22:13:33.457Z,5.90
2018-08-19T22:16:04.343Z,6.40
2018-08-19T22:18:33.280Z,6.97
2018-08-19T22:21:24.165Z,6.37
2018-08-19T22:23:56.119Z,6.73
2018-08-19T22:26:24.700Z,6.97
2018-08-19T22:29:14.760Z,6.60
2018-08-19T22:31:44.290Z,7.93
2018-08-19T22:34:14.586Z,8.57
2018-08-19T22:36:44.449Z,7.20
2018-08-19T22:39:18.220Z,8.50
2018-08-19T22:41:51.804Z,7.70
2018-08-19T22:44:20.630Z,7.67
2018-08-19T22:46:51.434Z,7.50
2018-08-19T22:49:20.219Z,7.50
2018-08-19T22:51:49.030Z,7.80
2018-08-19T22:54:17.831Z,8.27
2018-08-19T22:56:48.146Z,9.13
2018-08-19T22:59:16.912Z,9.03
2018-08-19T23:01:48.629Z,10.50
2018-08-19T23:04:17.506Z,9.37
2018-08-19T23:06:47.187Z,9.23
2018-08-19T23:09:18.059Z,9.10
2018-08-19T23:11:48.374Z,10.30
2018-08-19T23:14:34.243Z,9.80
2018-08-19T23:17:06.298Z,10.00
2018-08-19T23:19:36.011Z,10.67
2018-08-19T23:22:04.652Z,10.80
2018-08-19T23:24:33.647Z,10.20
2018-08-19T23:27:02.874Z,10.50
2018-08-19T23:29:31.446Z,12.70
2018-08-19T23:32:00.344Z,10.73
2018-08-19T23:34:29.388Z,12.03
2018-08-19T23:36:58.533Z,14.50
2018-08-19T23:39:27.254Z,11.70
2018-08-19T23:41:57.208Z,11.77
2018-08-19T23:44:26.228Z,12.30
2018-08-19T23:46:56.560Z,12.17
2018-08-19T23:49:25.563Z,12.97
2018-08-19T23:51:54.202Z,13.53
2018-08-19T23:54:22.785Z,13.03
2018-08-19T23:56:51.600Z,14.17
2018-08-19T23:59:28.037Z,14.90
